createdAt,value
2018-01-22T00:02:10.285Z,18.90
2018-01-22T00:04:39.411Z,16.70
2018-01-22T00:07:08.612Z,16.60
2018-01-22T00:09:38.037Z,16.80
2018-01-22T00:12:07.165Z,17.30
2018-01-22T00:14:36.294Z,16.83
2018-01-22T00:17:05.427Z,16.33
2018-01-22T00:19:34.558Z,16.80
2018-01-22T00:22:03.758Z,16.17
2018-01-22T00:24:32.908Z,16.70
2018-01-22T00:27:02.027Z,15.73
2018-01-22T00:29:31.463Z,17.70
2018-01-22T00:32:00.626Z,16.07
2018-01-22T00:34:29.780Z,15.80
2018-01-22T00:36:58.919Z,16.50
2018-01-22T00:39:33.894Z,16.57
2018-01-22T00:42:03.555Z,15.73
2018-01-22T00:44:32.734Z,15.00
2018-01-22T00:47:02.183Z,16.37
2018-01-22T00:49:31.329Z,14.77
2018-01-22T00:52:00.450Z,16.13
2018-01-22T00:54:29.968Z,15.13
2018-01-22T00:56:59.126Z,15.63
2018-01-22T00:59:28.254Z,15.90
2018-01-22T01:01:57.366Z,17.10
2018-01-22T01:04:27.175Z,15.73
2018-01-22T01:06:56.397Z,15.47
2018-01-22T01:09:25.524Z,15.13
2018-01-22T01:11:54.668Z,15.13
2018-01-22T01:14:23.785Z,14.90
2018-01-22T01:16:52.932Z,15.80
2018-01-22T01:19:22.083Z,14.90
2018-01-22T01:21:51.207Z,15.07
2018-01-22T01:24:20.339Z,15.37
2018-01-22T01:26:49.483Z,14.30
2018-01-22T01:29:18.615Z,14.00
2018-01-22T01:31:47.745Z,14.27
2018-01-22T01:34:16.887Z,16.00
2018-01-22T01:36:46.011Z,14.03
2018-01-22T01:39:15.142Z,16.20
2018-01-22T01:41:44.282Z,14.93
2018-01-22T01:44:13.403Z,15.40
2018-01-22T01:46:42.535Z,15.23
2018-01-22T01:49:11.689Z,14.60
2018-01-22T01:51:40.818Z,14.07
2018-01-22T01:54:09.950Z,14.00
2018-01-22T01:56:39.102Z,15.03
2018-01-22T01:59:08.226Z,14.80
2018-01-22T02:01:37.355Z,13.93
2018-01-22T02:04:06.503Z,14.80
2018-01-22T02:06:35.630Z,13.53
2018-01-22T02:09:04.758Z,15.30
2018-01-22T02:11:33.912Z,14.90
2018-01-22T02:14:03.042Z,15.40
2018-01-22T02:16:32.167Z,14.07
2018-01-22T02:19:01.307Z,15.57
2018-01-22T02:21:30.436Z,14.20
2018-01-22T02:23:59.563Z,14.70
2018-01-22T02:26:28.715Z,14.77
2018-01-22T02:28:57.836Z,15.50
2018-01-22T02:31:26.964Z,13.23
2018-01-22T02:33:56.154Z,14.53
2018-01-22T02:36:25.294Z,15.07
2018-01-22T02:38:54.485Z,12.43
2018-01-22T02:41:23.645Z,13.80
2018-01-22T02:43:52.767Z,15.27
2018-01-22T02:46:21.890Z,13.67
2018-01-22T02:48:51.060Z,14.63
2018-01-22T02:51:20.194Z,14.63
2018-01-22T02:53:49.318Z,14.50
2018-01-22T02:56:18.463Z,13.53
2018-01-22T02:58:47.580Z,15.80
2018-01-22T03:01:16.710Z,16.53
2018-01-22T03:03:45.882Z,15.07
2018-01-22T03:06:15.003Z,15.13
2018-01-22T03:08:44.130Z,15.70
2018-01-22T03:11:13.279Z,15.60
2018-01-22T03:13:42.405Z,14.90
2018-01-22T03:16:11.523Z,14.33
2018-01-22T03:18:40.674Z,14.67
2018-01-22T03:21:09.794Z,14.13
2018-01-22T03:23:38.969Z,15.87
2018-01-22T03:26:08.111Z,14.30
2018-01-22T03:28:37.238Z,14.17
2018-01-22T03:31:06.369Z,15.40
2018-01-22T03:33:35.506Z,14.10
2018-01-22T03:36:04.646Z,15.00
2018-01-22T03:38:33.773Z,14.30
2018-01-22T03:41:02.911Z,14.23
2018-01-22T03:43:32.034Z,15.40
2018-01-22T03:46:01.167Z,14.37
2018-01-22T03:48:30.315Z,17.40
2018-01-22T03:50:59.442Z,17.17
2018-01-22T03:53:28.560Z,17.00
2018-01-22T03:55:57.707Z,18.07
2018-01-22T03:58:26.826Z,19.90
2018-01-22T04:00:55.956Z,17.30
2018-01-22T04:03:25.095Z,16.67
2018-01-22T04:05:54.215Z,15.30
2018-01-22T04:08:23.346Z,17.07
2018-01-22T04:10:52.487Z,17.07
2018-01-22T04:13:21.608Z,16.47
2018-01-22T04:15:50.731Z,18.00
2018-01-22T04:18:19.879Z,17.87
2018-01-22T04:20:48.999Z,17.23
2018-01-22T04:23:18.126Z,15.57
2018-01-22T04:25:47.266Z,16.57
2018-01-22T04:28:16.391Z,13.63
2018-01-22T04:30:45.523Z,12.40
2018-01-22T04:33:14.675Z,12.30
2018-01-22T04:35:43.796Z,12.70
2018-01-22T04:38:12.971Z,13.33
2018-01-22T04:40:42.114Z,12.23
2018-01-22T04:43:11.248Z,11.07
2018-01-22T04:45:40.366Z,13.50
2018-01-22T04:48:09.658Z,14.60
2018-01-22T04:50:38.783Z,14.60
2018-01-22T04:53:07.907Z,15.87
2018-01-22T04:55:37.054Z,16.37
2018-01-22T04:58:06.183Z,16.60
2018-01-22T05:00:35.340Z,17.00
2018-01-22T05:03:04.488Z,17.53
2018-01-22T05:05:33.603Z,18.17
2018-01-22T05:08:02.744Z,18.57
2018-01-22T05:10:31.883Z,18.87
2018-01-22T05:13:01.015Z,18.90
2018-01-22T05:15:30.138Z,19.80
2018-01-22T05:17:59.306Z,18.40
2018-01-22T05:20:28.442Z,17.90
2018-01-22T05:22:57.566Z,18.33
2018-01-22T05:25:26.714Z,17.20
2018-01-22T05:27:55.842Z,17.57
2018-01-22T05:30:24.967Z,16.97
2018-01-22T05:32:54.103Z,19.27
2018-01-22T05:35:23.239Z,18.70
2018-01-22T05:37:52.362Z,19.10
2018-01-22T05:40:21.536Z,17.83
2018-01-22T05:42:50.655Z,18.67
2018-01-22T05:45:19.792Z,17.97
2018-01-22T05:47:48.930Z,17.60
2018-01-22T05:50:18.063Z,17.33
2018-01-22T05:52:47.190Z,17.83
2018-01-22T05:55:17.828Z,17.20
2018-01-22T05:57:46.983Z,16.83
2018-01-22T06:00:16.111Z,15.60
2018-01-22T06:02:45.277Z,16.23
2018-01-22T06:05:14.398Z,15.17
2018-01-22T06:07:43.546Z,16.13
2018-01-22T06:10:12.698Z,15.33
2018-01-22T06:12:41.834Z,14.33
2018-01-22T06:15:10.959Z,16.43
2018-01-22T06:17:40.111Z,15.47
2018-01-22T06:20:09.255Z,16.47
2018-01-22T06:22:38.374Z,14.63
2018-01-22T06:25:07.526Z,14.80
2018-01-22T06:27:36.682Z,14.50
2018-01-22T06:30:05.803Z,13.53
2018-01-22T06:32:34.970Z,15.53
2018-01-22T06:35:04.094Z,15.90
2018-01-22T06:37:33.218Z,16.60
2018-01-22T06:40:02.429Z,18.87
2018-01-22T06:42:31.531Z,17.20
2018-01-22T06:45:00.654Z,15.63
2018-01-22T06:47:29.798Z,16.23
2018-01-22T06:49:58.922Z,16.30
2018-01-22T06:52:28.058Z,18.00
2018-01-22T06:54:57.210Z,17.47
2018-01-22T06:57:26.342Z,16.00
2018-01-22T06:59:55.468Z,17.73
2018-01-22T07:02:24.607Z,15.77
2018-01-22T07:04:53.787Z,17.27
2018-01-22T07:07:22.911Z,17.60
2018-01-22T07:09:52.066Z,15.60
2018-01-22T07:12:21.187Z,15.47
2018-01-22T07:14:50.314Z,15.13
2018-01-22T07:17:19.490Z,17.93
2018-01-22T07:19:48.610Z,15.60
2018-01-22T07:22:17.726Z,15.90
2018-01-22T07:24:46.866Z,16.40
2018-01-22T07:27:16.004Z,17.50
2018-01-22T07:29:45.128Z,14.80
2018-01-22T07:32:14.300Z,14.93
2018-01-22T07:34:43.452Z,14.47
2018-01-22T07:37:12.638Z,16.10
2018-01-22T07:39:41.774Z,16.90
2018-01-22T07:42:10.962Z,15.67
2018-01-22T07:44:40.128Z,13.80
2018-01-22T07:47:09.269Z,14.87
2018-01-22T07:49:38.396Z,13.53
2018-01-22T07:52:07.525Z,15.30
2018-01-22T07:54:36.662Z,13.23
2018-01-22T07:57:05.863Z,12.43
2018-01-22T07:59:34.982Z,13.47
2018-01-22T08:02:04.139Z,12.97
2018-01-22T08:04:33.274Z,13.87
2018-01-22T08:07:02.428Z,13.00
2018-01-22T08:09:31.575Z,14.97
2018-01-22T08:12:00.707Z,13.20
2018-01-22T08:14:29.962Z,14.20
2018-01-22T08:16:59.123Z,16.87
2018-01-22T08:19:28.301Z,18.80
2018-01-22T08:21:57.431Z,20.43
2018-01-22T08:24:26.578Z,24.50
2018-01-22T08:26:55.711Z,29.10
2018-01-22T08:29:24.898Z,31.40
2018-01-22T08:31:54.053Z,33.17
2018-01-22T08:34:23.191Z,39.60
2018-01-22T08:36:52.311Z,37.87
2018-01-22T08:39:21.470Z,41.77
2018-01-22T08:41:50.587Z,40.53
2018-01-22T08:44:19.710Z,41.70
2018-01-22T08:46:48.859Z,40.43
2018-01-22T08:49:18.003Z,42.20
2018-01-22T08:51:47.135Z,42.00
2018-01-22T08:54:16.277Z,42.80
2018-01-22T08:56:45.427Z,42.40
2018-01-22T08:59:14.559Z,41.90
2018-01-22T09:01:43.699Z,40.17
2018-01-22T09:04:12.820Z,40.60
2018-01-22T09:06:41.941Z,38.50
2018-01-22T09:09:11.085Z,40.23
2018-01-22T09:11:40.204Z,38.40
2018-01-22T09:14:09.335Z,45.60
2018-01-22T09:16:38.510Z,41.73
2018-01-22T09:19:07.635Z,33.47
2018-01-22T09:21:36.769Z,28.77
2018-01-22T09:24:05.923Z,38.13
2018-01-22T09:26:35.047Z,67.77
2018-01-22T09:29:04.030Z,185.50
2018-01-22T09:31:31.539Z,136.37
2018-01-22T09:33:59.024Z,91.97
2018-01-22T09:36:27.330Z,52.70
2018-01-22T09:38:54.797Z,57.63
2018-01-22T09:41:22.366Z,70.87
2018-01-22T09:43:49.844Z,45.83
2018-01-22T09:46:17.348Z,40.60
2018-01-22T09:48:45.628Z,43.00
2018-01-22T09:51:13.871Z,38.50
2018-01-22T09:53:41.392Z,40.37
2018-01-22T09:56:08.922Z,42.40
2018-01-22T09:58:36.429Z,47.00
2018-01-22T10:01:03.934Z,48.17
2018-01-22T10:03:33.162Z,42.63
2018-01-22T10:06:00.648Z,40.90
2018-01-22T10:08:28.153Z,42.50
2018-01-22T10:10:56.392Z,43.17
2018-01-22T10:13:23.870Z,44.93
2018-01-22T10:15:51.369Z,41.33
2018-01-22T10:18:18.847Z,39.93
2018-01-22T10:20:46.337Z,40.17
2018-01-22T10:23:13.839Z,40.37
2018-01-22T10:25:41.323Z,201.50
2018-01-22T10:28:08.803Z,138.03
2018-01-22T10:30:36.296Z,51.60
2018-01-22T10:33:04.532Z,41.47
2018-01-22T10:35:32.022Z,37.70
2018-01-22T10:38:01.171Z,42.43
2018-01-22T10:40:28.643Z,50.93
2018-01-22T10:42:56.126Z,48.50
2018-01-22T10:45:23.628Z,40.50
2018-01-22T10:47:52.841Z,41.97
2018-01-22T10:50:21.977Z,44.77
2018-01-22T10:52:51.134Z,41.73
2018-01-22T10:55:20.303Z,45.57
2018-01-22T10:57:49.435Z,43.80
2018-01-22T11:00:18.579Z,43.90
2018-01-22T11:02:47.710Z,46.73
2018-01-22T11:05:16.935Z,44.20
2018-01-22T11:07:46.083Z,45.00
2018-01-22T11:10:15.218Z,43.30
2018-01-22T11:12:44.391Z,42.87
2018-01-22T11:15:13.536Z,45.77
2018-01-22T11:17:42.708Z,43.67
2018-01-22T11:20:11.923Z,45.03
2018-01-22T11:22:41.075Z,42.83
2018-01-22T11:25:10.205Z,46.30
2018-01-22T11:27:39.331Z,42.63
2018-01-22T11:30:08.474Z,43.60
2018-01-22T11:32:37.611Z,46.53
2018-01-22T11:35:06.746Z,44.20
2018-01-22T11:37:35.879Z,42.27
2018-01-22T11:40:05.051Z,43.50
2018-01-22T11:42:34.179Z,45.00
2018-01-22T11:45:03.332Z,42.90
2018-01-22T11:47:30.812Z,38.03
2018-01-22T11:49:59.069Z,37.37
2018-01-22T11:52:26.604Z,38.60
2018-01-22T11:54:54.092Z,39.43
2018-01-22T11:57:21.572Z,46.60
2018-01-22T11:59:49.853Z,44.27
2018-01-22T12:02:18.096Z,57.50
2018-01-22T12:04:45.625Z,92.90
2018-01-22T12:07:13.149Z,35.90
2018-01-22T12:09:41.403Z,37.10
2018-01-22T12:12:10.237Z,40.23
2018-01-22T12:14:37.744Z,37.83
2018-01-22T12:17:05.257Z,45.87
2018-01-22T12:19:32.736Z,36.13
2018-01-22T12:22:01.405Z,34.90
2018-01-22T12:24:28.898Z,40.23
2018-01-22T12:26:56.372Z,38.20
2018-01-22T12:29:23.902Z,32.53
2018-01-22T12:31:51.392Z,36.40
2018-01-22T12:34:18.871Z,35.83
2018-01-22T12:36:47.173Z,33.77
2018-01-22T12:39:15.413Z,38.40
2018-01-22T12:41:42.910Z,38.67
2018-01-22T12:44:10.409Z,32.70
2018-01-22T12:46:37.889Z,34.93
2018-01-22T12:49:05.372Z,32.90
2018-01-22T12:51:33.640Z,33.37
2018-01-22T12:54:01.895Z,34.73
2018-01-22T12:56:29.386Z,232.80
2018-01-22T12:58:58.016Z,138.63
2018-01-22T13:01:25.503Z,161.53
2018-01-22T13:03:52.985Z,179.47
2018-01-22T13:06:21.258Z,144.00
2018-01-22T13:08:49.498Z,40.73
2018-01-22T13:11:17.008Z,50.73
2018-01-22T13:13:44.504Z,84.77
2018-01-22T13:16:11.995Z,68.03
2018-01-22T13:18:39.477Z,50.23
2018-01-22T13:21:07.728Z,54.23
2018-01-22T13:23:35.977Z,49.77
2018-01-22T13:26:03.451Z,36.90
2018-01-22T13:28:30.974Z,41.77
2018-01-22T13:30:58.464Z,39.97
2018-01-22T13:33:26.088Z,37.80
2018-01-22T13:35:53.652Z,35.70
2018-01-22T13:38:21.145Z,35.20
2018-01-22T13:40:54.223Z,38.90
2018-01-22T13:43:21.734Z,35.10
2018-01-22T13:45:50.018Z,104.30
2018-01-22T13:48:17.520Z,284.40
2018-01-22T13:50:44.994Z,43.00
2018-01-22T13:53:13.825Z,111.90
2018-01-22T13:55:42.674Z,92.10
2018-01-22T13:58:10.355Z,36.60
2018-01-22T14:00:39.196Z,52.87
2018-01-22T14:03:06.715Z,47.50
2018-01-22T14:05:35.398Z,50.47
2018-01-22T14:08:02.884Z,47.27
2018-01-22T14:10:30.432Z,36.77
2018-01-22T14:12:58.694Z,41.10
2018-01-22T14:15:26.942Z,53.30
2018-01-22T14:17:54.481Z,40.00
2018-01-22T14:20:23.108Z,42.50
2018-01-22T14:22:51.346Z,42.43
2018-01-22T14:25:18.854Z,43.33
2018-01-22T14:27:46.356Z,42.07
2018-01-22T14:30:13.853Z,44.37
2018-01-22T14:32:42.148Z,45.23
2018-01-22T14:35:09.629Z,104.67
2018-01-22T14:37:37.887Z,54.20
2018-01-22T14:40:06.168Z,174.07
2018-01-22T14:42:34.430Z,327.77
2018-01-22T14:51:10.875Z,35.97
2018-01-22T14:53:41.059Z,39.40
2018-01-22T14:56:09.942Z,38.60
2018-01-22T14:58:40.442Z,40.03
2018-01-22T15:01:10.641Z,39.97
2018-01-22T15:03:39.826Z,39.90
2018-01-22T15:06:08.959Z,41.80
2018-01-22T15:08:38.105Z,41.90
2018-01-22T15:11:09.423Z,38.10
2018-01-22T15:13:40.451Z,42.33
2018-01-22T15:16:10.012Z,44.73
2018-01-22T15:18:40.242Z,44.90
2018-01-22T15:21:09.366Z,46.50
2018-01-22T15:23:38.762Z,44.13
2018-01-22T15:26:07.916Z,44.90
2018-01-22T15:28:37.054Z,43.90
2018-01-22T15:31:06.190Z,44.93
2018-01-22T15:33:36.489Z,44.53
2018-01-22T15:36:05.792Z,44.37
2018-01-22T15:38:34.939Z,47.63
2018-01-22T15:41:04.075Z,45.27
2018-01-22T15:43:33.215Z,45.87
2018-01-22T15:46:02.383Z,45.43
2018-01-22T15:48:31.522Z,43.33
2018-01-22T15:51:01.975Z,44.53
2018-01-22T15:53:31.928Z,46.53
2018-01-22T15:56:01.742Z,45.87
2018-01-22T15:58:31.991Z,41.03
2018-01-22T16:01:01.389Z,44.37
2018-01-22T16:03:31.694Z,46.53
2018-01-22T16:06:00.859Z,44.10
2018-01-22T16:08:30.549Z,44.83
2018-01-22T16:10:59.675Z,45.93
2018-01-22T16:13:28.930Z,45.20
2018-01-22T16:15:58.091Z,45.43
2018-01-22T16:18:28.679Z,42.23
2018-01-22T16:20:57.866Z,45.87
2018-01-22T16:23:27.510Z,45.53
2018-01-22T16:25:56.636Z,48.00
2018-01-22T16:28:25.982Z,61.57
2018-01-22T16:30:55.106Z,66.93
2018-01-22T16:33:24.230Z,63.07
2018-01-22T16:38:41.370Z,55.67
2018-01-22T16:41:10.543Z,51.57
2018-01-22T16:43:39.675Z,53.07
2018-01-22T16:46:08.806Z,52.20
2018-01-22T16:48:37.957Z,49.80
2018-01-22T16:51:07.106Z,47.83
2018-01-22T16:53:36.231Z,50.43
2018-01-22T16:56:05.461Z,50.10
2018-01-22T16:58:34.618Z,51.40
2018-01-22T17:01:03.751Z,48.73
2018-01-22T17:03:32.959Z,50.27
2018-01-22T17:06:02.091Z,51.93
2018-01-22T17:08:31.223Z,51.40
2018-01-22T17:11:00.399Z,51.10
2018-01-22T17:13:29.566Z,52.20
2018-01-22T17:15:58.694Z,54.37
2018-01-22T17:18:28.042Z,53.50
2018-01-22T17:20:57.234Z,54.50
2018-01-22T17:23:26.386Z,51.73
2018-01-22T17:25:55.550Z,52.80
2018-01-22T17:28:24.691Z,52.10
2018-01-22T17:30:53.818Z,52.70
2018-01-22T17:33:22.978Z,52.77
2018-01-22T17:35:52.121Z,48.70
2018-01-22T17:38:21.298Z,50.20
2018-01-22T17:40:49.598Z,59.13
2018-01-22T17:43:17.086Z,55.80
2018-01-22T17:45:44.581Z,73.93
2018-01-22T17:48:12.079Z,53.10
2018-01-22T17:50:39.568Z,54.60
2018-01-22T17:53:07.054Z,53.03
2018-01-22T17:55:34.587Z,51.50
2018-01-22T17:58:02.076Z,51.20
2018-01-22T18:00:29.549Z,51.67
2018-01-22T18:02:57.860Z,50.20
2018-01-22T18:05:25.340Z,52.10
2018-01-22T18:07:52.823Z,51.03
2018-01-22T18:10:20.315Z,50.73
2018-01-22T18:12:47.820Z,51.23
2018-01-22T18:15:15.300Z,49.03
2018-01-22T18:17:42.804Z,48.90
2018-01-22T18:20:10.277Z,47.23
2018-01-22T18:22:37.769Z,48.83
2018-01-22T18:25:05.272Z,50.20
2018-01-22T18:27:32.746Z,50.93
2018-01-22T18:30:00.240Z,51.23
2018-01-22T18:32:27.748Z,49.07
2018-01-22T18:34:55.231Z,53.70
2018-01-22T18:37:22.702Z,49.30
2018-01-22T18:39:50.195Z,53.67
2018-01-22T18:42:18.464Z,51.63
2018-01-22T18:44:45.982Z,53.00
2018-01-22T18:47:13.544Z,51.47
2018-01-22T18:49:41.049Z,51.27
2018-01-22T18:52:10.032Z,52.43
2018-01-22T18:54:37.528Z,50.00
2018-01-22T18:57:05.782Z,48.07
2018-01-22T18:59:33.263Z,47.53
2018-01-22T19:02:01.540Z,51.97
2018-01-22T19:04:29.028Z,53.63
2018-01-22T19:06:56.511Z,53.20
2018-01-22T19:09:24.024Z,53.93
2018-01-22T19:11:51.508Z,52.43
2018-01-22T19:14:18.996Z,50.47
2018-01-22T19:16:46.492Z,52.23
2018-01-22T19:19:14.731Z,51.20
2018-01-22T19:21:42.209Z,49.30
2018-01-22T19:24:09.712Z,49.80
2018-01-22T19:26:37.210Z,51.10
2018-01-22T19:29:04.820Z,51.00
2018-01-22T19:31:32.321Z,49.70
2018-01-22T19:33:59.808Z,48.70
2018-01-22T19:36:28.060Z,47.00
2018-01-22T19:38:55.563Z,53.40
2018-01-22T19:41:23.804Z,50.40
2018-01-22T19:43:51.284Z,54.27
2018-01-22T19:46:19.664Z,53.23
2018-01-22T19:48:47.911Z,53.63
2018-01-22T19:51:15.377Z,45.40
2018-01-22T19:53:42.935Z,50.53
2018-01-22T19:56:10.417Z,48.80
2018-01-22T19:58:39.027Z,46.20
2018-01-22T20:01:06.530Z,53.40
2018-01-22T20:03:34.024Z,52.73
2018-01-22T20:06:02.264Z,51.50
2018-01-22T20:08:29.903Z,45.27
2018-01-22T20:10:57.397Z,51.03
2018-01-22T20:13:24.865Z,47.80
2018-01-22T20:15:52.355Z,49.13
2018-01-22T20:18:20.588Z,48.60
2018-01-22T20:20:48.064Z,47.50
2018-01-22T20:23:15.616Z,45.03
2018-01-22T20:25:43.234Z,44.70
2018-01-22T20:28:10.733Z,45.60
2018-01-22T20:30:38.360Z,43.37
2018-01-22T20:33:05.837Z,44.37
2018-01-22T20:35:33.337Z,44.80
2018-01-22T20:38:01.596Z,41.40
2018-01-22T20:40:29.071Z,41.20
2018-01-22T20:42:57.444Z,41.87
2018-01-22T20:45:25.726Z,42.27
2018-01-22T20:47:53.975Z,41.83
2018-01-22T20:50:21.463Z,42.47
2018-01-22T20:52:49.768Z,41.00
2018-01-22T20:55:17.240Z,42.23
2018-01-22T20:57:44.716Z,42.33
2018-01-22T21:00:19.340Z,42.80
2018-01-22T21:02:46.812Z,45.30
2018-01-22T21:05:14.285Z,43.87
2018-01-22T21:07:41.771Z,40.77
2018-01-22T21:10:10.060Z,43.40
2018-01-22T21:12:38.315Z,42.80
2018-01-22T21:15:06.626Z,44.93
2018-01-22T21:17:35.005Z,40.90
2018-01-22T21:20:02.479Z,44.80
2018-01-22T21:22:30.042Z,42.17
2018-01-22T21:24:58.353Z,39.90
2018-01-22T21:27:26.023Z,42.13
2018-01-22T21:29:54.291Z,40.47
2018-01-22T21:32:21.820Z,39.70
2018-01-22T21:34:49.295Z,39.90
2018-01-22T21:37:16.790Z,38.87
2018-01-22T21:39:45.140Z,36.63
2018-01-22T21:42:12.650Z,37.70
2018-01-22T21:44:40.179Z,37.70
2018-01-22T21:47:07.656Z,40.50
2018-01-22T21:49:35.895Z,36.07
2018-01-22T21:52:03.385Z,38.20
2018-01-22T21:54:31.620Z,37.80
2018-01-22T21:56:59.099Z,34.20
2018-01-22T21:59:26.585Z,38.27
2018-01-22T22:01:54.820Z,37.47
2018-01-22T22:04:22.320Z,37.70
2018-01-22T22:06:50.577Z,37.00
2018-01-22T22:09:18.061Z,38.90
2018-01-22T22:11:46.305Z,37.83
2018-01-22T22:14:13.796Z,37.20
2018-01-22T22:16:42.042Z,37.20
2018-01-22T22:19:09.519Z,36.23
2018-01-22T22:21:37.778Z,36.50
2018-01-22T22:24:05.247Z,35.20
2018-01-22T22:26:32.727Z,37.57
2018-01-22T22:29:00.997Z,35.73
2018-01-22T22:31:29.241Z,37.03
2018-01-22T22:33:56.721Z,36.07
2018-01-22T22:36:24.216Z,33.20
2018-01-22T22:38:51.690Z,33.27
2018-01-22T22:41:19.175Z,36.67
2018-01-22T22:43:46.675Z,35.70
2018-01-22T22:46:14.918Z,34.70
2018-01-22T22:48:42.392Z,35.47
2018-01-22T22:51:10.663Z,34.13
2018-01-22T22:53:38.136Z,34.10
2018-01-22T22:56:06.373Z,32.27
2018-01-22T22:58:33.871Z,32.83
2018-01-22T23:01:02.402Z,31.93
2018-01-22T23:03:30.467Z,35.27
2018-01-22T23:05:57.958Z,35.23
2018-01-22T23:08:25.455Z,33.33
2018-01-22T23:10:53.691Z,31.80
2018-01-22T23:13:21.188Z,31.83
2018-01-22T23:15:49.429Z,32.80
2018-01-22T23:18:16.903Z,30.80
2018-01-22T23:20:44.383Z,32.70
2018-01-22T23:23:12.624Z,32.17
2018-01-22T23:25:40.096Z,32.40
2018-01-22T23:28:07.591Z,32.83
2018-01-22T23:30:35.072Z,31.57
2018-01-22T23:33:02.540Z,32.13
2018-01-22T23:35:30.026Z,32.33
2018-01-22T23:37:57.505Z,30.20
2018-01-22T23:40:25.736Z,32.30
2018-01-22T23:42:53.228Z,31.60
2018-01-22T23:45:20.708Z,30.27
2018-01-22T23:47:48.946Z,34.13
2018-01-22T23:50:16.433Z,32.33
2018-01-22T23:52:44.707Z,31.87
2018-01-22T23:55:12.943Z,30.90
2018-01-22T23:57:40.430Z,30.73
